Time;durP1;ratioP1;P1;durP2;ratioP2;P2;SDS_P1;SDS_P2;PMS_P1;PMS_P2;Temp;Humidity;BMP_temperature;BMP_pressure;BME280_temperature;BME280_humidity;BME280_pressure;Samples;Min_cycle;Max_cycle;Signal;HPM_P1;HPM_P2
2023/08/29 00:00:18;;;;;;;11.30;9.57;;;14.80;99.90;;;;;;5071313;28;20297;-73
2023/08/29 00:02:44;;;;;;;10.57;9.57;;;14.70;99.90;;;;;;5069060;28;20554;-73
2023/08/29 00:05:10;;;;;;;12.17;10.80;;;14.70;99.90;;;;;;5069607;28;20193;-74
2023/08/29 00:07:37;;;;;;;12.07;10.80;;;14.70;99.90;;;;;;5070959;28;20190;-73
2023/08/29 00:10:02;;;;;;;12.93;11.63;;;14.60;99.90;;;;;;5071326;28;20813;-73
2023/08/29 00:12:28;;;;;;;16.10;13.10;;;14.50;99.90;;;;;;5069446;28;20174;-73
2023/08/29 00:14:56;;;;;;;14.13;12.73;;;14.40;99.90;;;;;;5070919;28;20246;-73
2023/08/29 00:17:22;;;;;;;14.93;13.10;;;14.40;99.90;;;;;;5071171;28;20174;-73
2023/08/29 00:19:48;;;;;;;17.07;13.33;;;14.40;99.90;;;;;;5060405;28;20205;-73
2023/08/29 00:22:14;;;;;;;15.20;13.17;;;14.40;99.90;;;;;;5050636;28;20171;-73
2023/08/29 00:24:43;;;;;;;14.90;13.50;;;14.40;99.90;;;;;;5051135;28;20198;-73
2023/08/29 00:27:10;;;;;;;16.70;14.90;;;14.50;99.90;;;;;;5051011;28;20186;-73
2023/08/29 00:29:35;;;;;;;16.10;14.20;;;14.50;99.90;;;;;;5050827;28;20183;-73
2023/08/29 00:32:01;;;;;;;15.20;13.67;;;14.40;99.90;;;;;;5052183;28;20189;-72
2023/08/29 00:34:27;;;;;;;16.23;14.47;;;14.40;99.90;;;;;;5070911;28;20220;-73
2023/08/29 00:36:52;;;;;;;16.73;13.67;;;14.50;99.90;;;;;;5070939;28;20731;-73
2023/08/29 00:39:18;;;;;;;16.43;14.63;;;14.50;99.90;;;;;;5070826;28;20198;-73
2023/08/29 00:41:48;;;;;;;15.23;13.63;;;14.60;99.90;;;;;;5070454;28;20272;-73
2023/08/29 00:44:14;;;;;;;16.03;13.50;;;14.60;99.90;;;;;;5069414;28;20382;-74
2023/08/29 00:46:39;;;;;;;14.97;13.40;;;14.70;99.90;;;;;;5069827;28;20546;-73
2023/08/29 00:49:06;;;;;;;14.63;13.13;;;14.70;99.90;;;;;;5049549;28;20641;-73
2023/08/29 00:51:32;;;;;;;14.73;13.17;;;14.80;99.90;;;;;;5050508;28;20186;-73
2023/08/29 00:53:57;;;;;;;15.60;13.70;;;14.80;99.90;;;;;;5050405;28;20198;-73
2023/08/29 00:56:24;;;;;;;15.17;13.60;;;14.80;99.90;;;;;;5050571;28;20171;-74
2023/08/29 00:58:49;;;;;;;17.30;13.97;;;14.90;99.90;;;;;;5050546;28;20198;-73
2023/08/29 01:01:16;;;;;;;15.17;13.63;;;14.90;99.90;;;;;;5067635;28;20585;-72
2023/08/29 01:03:42;;;;;;;15.23;13.10;;;14.90;99.90;;;;;;5070287;28;20671;-74
2023/08/29 01:06:09;;;;;;;14.67;13.17;;;14.90;99.90;;;;;;5070573;28;20174;-74
2023/08/29 01:08:34;;;;;;;15.43;13.80;;;14.90;99.90;;;;;;5070629;28;20214;-73
2023/08/29 01:11:19;;;;;;;18.40;14.73;;;15.00;99.90;;;;;;5070417;28;20617;-73
2023/08/29 01:13:54;;;;;;;16.13;13.47;;;15.00;99.90;;;;;;5070340;28;20181;-73
2023/08/29 01:16:27;;;;;;;17.17;14.27;;;15.00;99.90;;;;;;5054150;28;20183;-73
2023/08/29 01:18:54;;;;;;;16.53;14.17;;;15.00;99.90;;;;;;5053976;28;20221;-73
2023/08/29 01:21:29;;;;;;;16.17;14.57;;;14.90;99.90;;;;;;5053780;28;20174;-73
2023/08/29 01:24:02;;;;;;;15.20;13.70;;;14.90;99.90;;;;;;5052399;28;20198;-74
2023/08/29 01:26:29;;;;;;;17.37;14.20;;;14.90;99.90;;;;;;5053903;28;20167;-73
2023/08/29 01:28:57;;;;;;;16.37;14.67;;;14.90;99.90;;;;;;5056130;28;20202;-72
2023/08/29 01:31:29;;;;;;;17.27;15.47;;;14.90;99.90;;;;;;5052258;28;20787;-72
2023/08/29 01:33:58;;;;;;;17.03;14.40;;;15.00;99.90;;;;;;5053695;28;20788;-73
2023/08/29 01:36:43;;;;;;;17.27;14.57;;;15.00;99.90;;;;;;5053912;28;20174;-73
2023/08/29 01:39:08;;;;;;;15.93;14.23;;;15.00;99.90;;;;;;5068814;28;20289;-71
2023/08/29 01:41:34;;;;;;;16.60;14.03;;;15.00;99.90;;;;;;5073094;28;20280;-72
2023/08/29 01:44:04;;;;;;;14.70;13.20;;;15.00;99.90;;;;;;5073658;28;20193;-72
2023/08/29 01:46:30;;;;;;;17.40;13.97;;;15.00;99.90;;;;;;5073726;28;20199;-73
2023/08/29 01:48:58;;;;;;;16.30;13.87;;;15.10;99.90;;;;;;5061982;28;20214;-73
2023/08/29 01:51:24;;;;;;;17.00;13.63;;;15.10;99.90;;;;;;5051862;28;20179;-72
2023/08/29 01:53:51;;;;;;;16.43;13.23;;;15.20;99.90;;;;;;5052985;28;20179;-73
2023/08/29 01:56:19;;;;;;;16.47;13.70;;;15.20;99.90;;;;;;5073206;28;20166;-72
2023/08/29 01:58:47;;;;;;;15.70;14.10;;;15.20;99.90;;;;;;5071691;28;20209;-72
2023/08/29 02:01:13;;;;;;;20.50;14.17;;;15.20;99.90;;;;;;5073285;28;20173;-72
2023/08/29 02:03:39;;;;;;;15.17;13.53;;;15.20;99.90;;;;;;5072637;28;20170;-72
2023/08/29 02:06:04;;;;;;;18.17;14.63;;;15.20;99.90;;;;;;5073303;28;20172;-72
2023/08/29 02:08:30;;;;;;;17.07;14.17;;;15.20;99.90;;;;;;5073010;28;20176;-72
2023/08/29 02:10:55;;;;;;;14.93;13.33;;;15.20;99.90;;;;;;5071236;28;20186;-72
2023/08/29 02:13:21;;;;;;;16.03;13.50;;;15.20;99.90;;;;;;5071414;28;20637;-73
2023/08/29 02:15:46;;;;;;;19.83;13.83;;;15.20;99.90;;;;;;5072920;28;20186;-73
2023/08/29 02:18:12;;;;;;;19.87;14.13;;;15.20;99.90;;;;;;5073100;28;20200;-73
2023/08/29 02:20:38;;;;;;;19.03;14.50;;;15.20;99.90;;;;;;5073042;28;20242;-74
2023/08/29 02:23:04;;;;;;;18.23;15.43;;;15.20;99.90;;;;;;5056921;28;20186;-73
2023/08/29 02:25:29;;;;;;;18.93;15.47;;;15.20;99.90;;;;;;5052575;28;20556;-73
2023/08/29 02:27:55;;;;;;;17.93;15.57;;;15.10;99.90;;;;;;5052961;28;20198;-73
2023/08/29 02:30:20;;;;;;;16.87;14.77;;;15.10;99.90;;;;;;5052965;28;20179;-73
2023/08/29 02:32:46;;;;;;;19.80;15.03;;;15.00;99.90;;;;;;5051315;28;20202;-72
2023/08/29 02:35:12;;;;;;;18.27;15.03;;;15.10;99.90;;;;;;5052106;28;20776;-72
2023/08/29 02:37:38;;;;;;;21.07;16.33;;;15.10;99.90;;;;;;5065289;28;20182;-72
2023/08/29 02:40:13;;;;;;;17.73;15.93;;;15.00;99.90;;;;;;5070732;28;20206;-73
2023/08/29 02:42:38;;;;;;;17.70;15.90;;;15.00;99.90;;;;;;5072151;28;20208;-73
2023/08/29 02:45:04;;;;;;;19.80;15.17;;;14.90;99.90;;;;;;5072302;28;20576;-73
2023/08/29 02:47:30;;;;;;;17.93;15.43;;;14.90;99.90;;;;;;5072567;28;20177;-72
2023/08/29 02:49:56;;;;;;;18.77;16.77;;;14.90;99.90;;;;;;5060573;28;20637;-73
2023/08/29 02:52:21;;;;;;;18.37;15.80;;;14.80;99.90;;;;;;5050995;28;20190;-71
2023/08/29 02:54:47;;;;;;;20.47;17.03;;;14.80;99.90;;;;;;5050959;28;20194;-72
2023/08/29 02:57:12;;;;;;;20.93;17.10;;;14.70;99.90;;;;;;5052559;28;20177;-73
2023/08/29 02:59:39;;;;;;;23.97;18.03;;;14.70;99.90;;;;;;5050851;28;20576;-72
2023/08/29 03:02:05;;;;;;;19.60;16.67;;;14.60;99.90;;;;;;5052036;28;20550;-71
2023/08/29 03:04:31;;;;;;;19.53;16.60;;;14.70;99.90;;;;;;5061828;28;20269;-72
2023/08/29 03:06:56;;;;;;;22.93;17.20;;;14.60;99.90;;;;;;5071633;28;20186;-72
2023/08/29 03:09:22;;;;;;;19.03;17.03;;;14.70;99.90;;;;;;5061892;28;20214;-72
2023/08/29 03:11:48;;;;;;;22.37;18.63;;;14.60;99.90;;;;;;5051652;28;20187;-73
2023/08/29 03:14:14;;;;;;;20.63;17.10;;;14.70;99.90;;;;;;5052233;28;20206;-74
2023/08/29 03:16:39;;;;;;;19.67;17.57;;;14.70;99.90;;;;;;5053271;28;20228;-73
2023/08/29 03:19:05;;;;;;;25.63;18.50;;;14.60;99.90;;;;;;5052219;28;20202;-73
2023/08/29 03:21:31;;;;;;;30.23;18.73;;;14.60;99.90;;;;;;5051898;28;20174;-72
2023/08/29 03:23:56;;;;;;;25.40;18.03;;;14.50;99.90;;;;;;5052059;28;20269;-72
2023/08/29 03:26:22;;;;;;;23.17;18.77;;;14.50;99.90;;;;;;5051918;28;20226;-72
2023/08/29 03:28:48;;;;;;;24.47;19.30;;;14.50;99.90;;;;;;5051857;28;20177;-71
2023/08/29 03:31:16;;;;;;;23.20;18.77;;;14.50;99.90;;;;;;5059685;28;20802;-71
2023/08/29 03:33:45;;;;;;;22.73;18.77;;;14.40;99.90;;;;;;5071358;28;20177;-71
2023/08/29 03:36:11;;;;;;;25.60;18.87;;;14.40;99.90;;;;;;5071729;28;20170;-73
2023/08/29 03:38:42;;;;;;;23.67;18.80;;;14.50;99.90;;;;;;5060374;28;20214;-72
2023/08/29 03:41:08;;;;;;;25.50;18.83;;;14.40;99.90;;;;;;5051637;28;20913;-73
2023/08/29 03:43:35;;;;;;;22.63;17.67;;;14.40;99.90;;;;;;5053797;28;20193;-72
2023/08/29 03:46:07;;;;;;;28.77;18.27;;;14.40;99.90;;;;;;5071721;28;20252;-73
2023/08/29 03:48:34;;;;;;;22.63;18.90;;;14.40;99.90;;;;;;5071624;28;20178;-72
2023/08/29 03:51:06;;;;;;;26.80;19.03;;;14.50;99.90;;;;;;5071513;28;20174;-72
2023/08/29 03:53:32;;;;;;;22.63;18.87;;;14.50;99.90;;;;;;5071051;28;20196;-72
2023/08/29 03:56:03;;;;;;;24.93;18.90;;;14.50;99.90;;;;;;5071432;28;20228;-72
2023/08/29 03:58:30;;;;;;;24.53;18.27;;;14.50;99.90;;;;;;5067223;28;20289;-73
2023/08/29 04:00:56;;;;;;;20.10;16.87;;;14.60;99.90;;;;;;5051282;28;20240;-72
2023/08/29 04:03:22;;;;;;;25.47;19.50;;;14.60;99.90;;;;;;5051043;28;20633;-73
2023/08/29 04:05:48;;;;;;;24.20;18.83;;;14.60;99.90;;;;;;5051339;28;20191;-74
2023/08/29 04:08:13;;;;;;;25.27;19.50;;;14.60;99.90;;;;;;5051467;28;20179;-72
2023/08/29 04:10:40;;;;;;;26.53;19.37;;;14.60;99.90;;;;;;5051806;28;20171;-72
2023/08/29 04:13:07;;;;;;;22.57;18.37;;;14.60;99.90;;;;;;5071100;28;20174;-72
2023/08/29 04:15:33;;;;;;;24.13;18.97;;;14.50;99.90;;;;;;5071051;28;20236;-71
2023/08/29 04:18:00;;;;;;;23.27;17.50;;;14.50;99.90;;;;;;5071339;28;20220;-71
2023/08/29 04:20:26;;;;;;;22.93;18.07;;;14.60;99.90;;;;;;5069784;28;20209;-72
2023/08/29 04:22:51;;;;;;;24.67;18.27;;;14.60;99.90;;;;;;5070721;28;20640;-73
2023/08/29 04:25:17;;;;;;;23.47;18.70;;;14.60;99.90;;;;;;5070823;28;20217;-72
2023/08/29 04:27:44;;;;;;;25.53;18.83;;;14.70;99.90;;;;;;5051385;28;20186;-72
2023/08/29 04:30:10;;;;;;;29.83;18.53;;;14.70;99.90;;;;;;5051028;28;20182;-72
2023/08/29 04:32:36;;;;;;;22.10;18.47;;;14.60;99.90;;;;;;5050650;28;20468;-72
2023/08/29 04:35:05;;;;;;;22.43;18.87;;;14.60;99.90;;;;;;5050864;28;20199;-72
2023/08/29 04:37:32;;;;;;;23.13;18.53;;;14.60;99.90;;;;;;5050959;28;20178;-72
2023/08/29 04:39:57;;;;;;;28.23;19.03;;;14.50;99.90;;;;;;5067269;28;20295;-72
2023/08/29 04:42:23;;;;;;;22.67;18.20;;;14.50;99.90;;;;;;5071062;28;20255;-72
2023/08/29 04:44:48;;;;;;;24.40;18.80;;;14.50;99.90;;;;;;5070657;28;20198;-72
2023/08/29 04:47:14;;;;;;;30.47;19.43;;;14.40;99.90;;;;;;5070968;28;20539;-72
2023/08/29 04:49:39;;;;;;;24.10;19.13;;;14.40;99.90;;;;;;5073917;28;20196;-72
2023/08/29 04:52:05;;;;;;;23.83;20.23;;;14.30;99.90;;;;;;5074634;28;20257;-72
2023/08/29 04:54:31;;;;;;;26.23;19.60;;;14.20;99.90;;;;;;5059399;28;20218;-72
2023/08/29 04:56:56;;;;;;;21.83;19.27;;;14.20;99.90;;;;;;5055003;28;20185;-72
2023/08/29 04:59:22;;;;;;;30.33;21.73;;;14.20;99.90;;;;;;5054425;28;20217;-71
2023/08/29 05:01:48;;;;;;;25.70;19.57;;;14.30;99.90;;;;;;5053961;28;20193;-72
2023/08/29 05:04:13;;;;;;;27.23;19.43;;;14.30;99.90;;;;;;5054296;28;20285;-72
2023/08/29 05:06:39;;;;;;;26.60;20.23;;;14.30;99.90;;;;;;5065417;28;20256;-71
2023/08/29 05:09:09;;;;;;;28.37;20.43;;;14.40;99.90;;;;;;5074956;28;20230;-73
2023/08/29 05:11:35;;;;;;;27.83;19.37;;;14.30;99.90;;;;;;5073887;28;20697;-71
2023/08/29 05:14:00;;;;;;;33.10;19.60;;;14.30;99.90;;;;;;5074203;28;20202;-71
2023/08/29 05:16:26;;;;;;;27.40;20.60;;;14.30;99.90;;;;;;5072983;28;20185;-72
2023/08/29 05:18:51;;;;;;;29.10;21.83;;;14.30;99.90;;;;;;5074011;28;20685;-72
2023/08/29 05:21:17;;;;;;;28.13;20.90;;;14.30;99.90;;;;;;5072084;28;20241;-73
2023/08/29 05:23:42;;;;;;;29.10;21.87;;;14.30;99.90;;;;;;5072271;28;20178;-71
2023/08/29 05:26:08;;;;;;;33.57;21.33;;;14.30;99.90;;;;;;5074060;28;20249;-71
2023/08/29 05:28:34;;;;;;;27.13;21.03;;;14.30;99.90;;;;;;5058056;28;20547;-73
2023/08/29 05:30:59;;;;;;;26.73;21.27;;;14.30;99.90;;;;;;5052766;28;20262;-73
2023/08/29 05:33:25;;;;;;;28.60;22.33;;;14.40;99.90;;;;;;5060101;28;20651;-73
2023/08/29 05:35:50;;;;;;;30.27;23.00;;;14.50;99.90;;;;;;5073685;28;20190;-73
2023/08/29 05:38:16;;;;;;;30.03;21.93;;;14.60;99.90;;;;;;5073764;28;20256;-72
2023/08/29 05:40:41;;;;;;;26.83;21.37;;;14.60;99.90;;;;;;5073731;28;20530;-72
2023/08/29 05:43:07;;;;;;;29.10;22.80;;;14.70;99.90;;;;;;5073432;28;20193;-72
2023/08/29 05:45:33;;;;;;;28.87;22.00;;;14.80;99.90;;;;;;5073735;28;20314;-73
2023/08/29 05:47:58;;;;;;;30.03;21.97;;;14.80;99.90;;;;;;5068768;28;20179;-73
2023/08/29 05:50:24;;;;;;;29.33;21.93;;;14.80;99.90;;;;;;5052571;28;20174;-72
2023/08/29 05:52:50;;;;;;;26.47;22.27;;;14.80;99.90;;;;;;5053373;28;20187;-73
2023/08/29 05:55:15;;;;;;;31.27;21.90;;;14.90;99.90;;;;;;5053756;28;20195;-73
2023/08/29 05:57:41;;;;;;;27.13;22.00;;;15.00;99.90;;;;;;5053606;28;20175;-74
2023/08/29 06:00:07;;;;;;;26.83;20.57;;;15.00;99.90;;;;;;5054183;28;20253;-72
2023/08/29 06:02:34;;;;;;;25.77;20.47;;;15.10;99.90;;;;;;5055293;28;20178;-74
2023/08/29 06:04:59;;;;;;;28.80;20.83;;;15.10;99.90;;;;;;5073282;28;20285;-73
2023/08/29 06:07:25;;;;;;;26.77;21.17;;;15.00;99.90;;;;;;5073598;28;20202;-73
2023/08/29 06:09:51;;;;;;;25.07;20.77;;;15.10;99.90;;;;;;5073165;28;20264;-73
2023/08/29 06:12:16;;;;;;;25.20;19.57;;;15.20;99.90;;;;;;5073012;28;20189;-73
2023/08/29 06:14:42;;;;;;;25.93;20.17;;;15.30;99.90;;;;;;5071374;28;20210;-73
2023/08/29 06:17:08;;;;;;;23.20;20.13;;;15.40;99.90;;;;;;5073139;28;20234;-73
2023/08/29 06:19:33;;;;;;;23.37;19.63;;;15.50;99.90;;;;;;5070637;28;20297;-73
2023/08/29 06:21:59;;;;;;;22.03;19.23;;;15.50;99.90;;;;;;5072608;28;20180;-72
2023/08/29 06:24:24;;;;;;;22.67;18.13;;;15.70;99.90;;;;;;5072942;28;20571;-73
2023/08/29 06:26:50;;;;;;;22.33;17.80;;;15.80;99.90;;;;;;5071664;28;20327;-73
2023/08/29 06:29:16;;;;;;;21.50;17.80;;;15.90;99.90;;;;;;5071143;28;20190;-73
2023/08/29 06:31:42;;;;;;;23.57;18.87;;;16.00;99.90;;;;;;5072105;28;20177;-73
2023/08/29 06:34:08;;;;;;;19.63;17.60;;;16.10;99.90;;;;;;5072514;28;20280;-73
2023/08/29 06:36:33;;;;;;;22.73;18.20;;;16.20;99.90;;;;;;5072530;28;20178;-72
2023/08/29 06:38:59;;;;;;;19.77;16.70;;;16.30;99.90;;;;;;5072516;28;20206;-73
2023/08/29 06:41:26;;;;;;;19.30;16.17;;;16.50;99.90;;;;;;5072188;28;20212;-72
2023/08/29 06:43:51;;;;;;;18.70;16.70;;;16.50;99.90;;;;;;5057136;28;20708;-72
2023/08/29 06:46:17;;;;;;;22.47;16.73;;;16.50;99.90;;;;;;5052667;28;20171;-73
2023/08/29 06:48:43;;;;;;;17.30;15.27;;;16.50;99.90;;;;;;5051041;28;20672;-73
2023/08/29 06:51:09;;;;;;;18.20;16.10;;;16.60;99.90;;;;;;5052486;28;20186;-73
2023/08/29 06:53:35;;;;;;;18.30;16.30;;;16.60;99.90;;;;;;5051768;28;20178;-74
2023/08/29 06:56:01;;;;;;;18.67;15.93;;;16.60;99.90;;;;;;5053284;28;20290;-72
2023/08/29 06:58:26;;;;;;;18.53;16.67;;;16.60;99.90;;;;;;5052607;28;20611;-72
2023/08/29 07:00:52;;;;;;;21.90;17.70;;;16.60;99.90;;;;;;5052588;28;20181;-72
2023/08/29 07:03:18;;;;;;;20.33;17.43;;;16.70;99.90;;;;;;5054162;28;20177;-72
2023/08/29 07:05:44;;;;;;;25.40;18.60;;;16.80;99.90;;;;;;5071828;28;20558;-72
2023/08/29 07:08:10;;;;;;;24.43;18.50;;;16.90;99.90;;;;;;5072205;28;20178;-72
2023/08/29 07:10:35;;;;;;;23.77;19.47;;;16.90;99.90;;;;;;5070518;28;20174;-72
2023/08/29 07:13:01;;;;;;;25.37;20.13;;;17.00;99.90;;;;;;5070700;28;20170;-72
2023/08/29 07:15:26;;;;;;;23.27;20.73;;;17.20;99.90;;;;;;5071726;28;20225;-72
2023/08/29 07:17:53;;;;;;;25.57;21.00;;;17.30;99.90;;;;;;5069759;28;20190;-72
2023/08/29 07:20:19;;;;;;;24.03;20.33;;;17.30;99.90;;;;;;5071742;28;20615;-71
2023/08/29 07:22:45;;;;;;;25.37;20.57;;;17.40;99.90;;;;;;5070580;28;20200;-73
2023/08/29 07:25:11;;;;;;;25.10;19.17;;;17.50;99.90;;;;;;5071571;28;20248;-71
2023/08/29 07:27:37;;;;;;;23.63;18.93;;;17.50;99.90;;;;;;5056377;28;20245;-72
2023/08/29 07:30:03;;;;;;;24.80;19.70;;;17.50;99.90;;;;;;5051693;28;20297;-72
2023/08/29 07:32:30;;;;;;;21.60;19.07;;;17.60;99.90;;;;;;5051204;28;20175;-71
2023/08/29 07:34:56;;;;;;;23.83;19.70;;;17.60;99.90;;;;;;5051589;28;20206;-72
2023/08/29 07:37:22;;;;;;;27.93;21.20;;;17.70;99.90;;;;;;5051578;28;20653;-72
2023/08/29 07:39:48;;;;;;;24.43;21.00;;;17.70;99.90;;;;;;5051838;28;20660;-72
2023/08/29 07:42:14;;;;;;;25.67;21.97;;;17.60;99.90;;;;;;5052726;28;20209;-72
2023/08/29 07:44:39;;;;;;;27.77;21.60;;;17.60;99.90;;;;;;5058367;28;20207;-71
2023/08/29 07:47:05;;;;;;;26.57;21.17;;;17.60;99.90;;;;;;5071376;28;20170;-72
2023/08/29 07:49:31;;;;;;;27.30;21.77;;;17.70;99.90;;;;;;5062290;28;20223;-72
2023/08/29 07:51:57;;;;;;;26.03;22.90;;;17.70;99.90;;;;;;5050443;28;20551;-72
2023/08/29 07:54:23;;;;;;;28.43;21.83;;;17.90;99.90;;;;;;5051213;28;20197;-72
2023/08/29 07:56:49;;;;;;;28.47;23.37;;;17.90;99.90;;;;;;5064442;28;20177;-72
2023/08/29 07:59:14;;;;;;;26.10;22.30;;;18.10;99.90;;;;;;5071965;28;20235;-72
2023/08/29 08:01:41;;;;;;;28.47;20.63;;;18.30;99.90;;;;;;5070727;28;20178;-71
2023/08/29 08:04:07;;;;;;;23.23;19.77;;;18.40;99.90;;;;;;5070038;28;20194;-73
2023/08/29 08:06:34;;;;;;;8.70;7.93;;;18.70;99.90;;;;;;5071465;28;20231;-73
2023/08/29 08:09:00;;;;;;;30.47;19.40;;;18.70;99.90;;;;;;5071047;28;20178;-72
2023/08/29 08:11:26;;;;;;;24.73;20.17;;;18.80;99.90;;;;;;5069857;28;20180;-72
2023/08/29 08:13:51;;;;;;;22.30;19.87;;;18.70;99.90;;;;;;5069329;28;20185;-71
2023/08/29 08:16:17;;;;;;;24.33;20.70;;;18.90;99.90;;;;;;5071114;28;20174;-71
2023/08/29 08:18:43;;;;;;;25.10;20.97;;;19.00;99.90;;;;;;5070812;28;20284;-71
2023/08/29 08:21:08;;;;;;;22.47;18.77;;;19.00;99.90;;;;;;5071092;28;20197;-71
2023/08/29 08:23:34;;;;;;;22.13;18.47;;;19.10;99.90;;;;;;5058845;28;20170;-72
2023/08/29 08:25:59;;;;;;;20.23;17.50;;;19.40;99.90;;;;;;5064806;28;20269;-72
2023/08/29 08:28:25;;;;;;;20.70;18.50;;;19.50;99.90;;;;;;5069303;28;20181;-72
2023/08/29 08:30:51;;;;;;;22.20;19.53;;;19.70;99.90;;;;;;5075110;28;20174;-72
2023/08/29 08:33:17;;;;;;;20.37;17.30;;;20.00;99.90;;;;;;5061481;28;20174;-72
2023/08/29 08:35:43;;;;;;;24.98;19.10;;;20.30;99.90;;;;;;5053257;28;20191;-73
2023/08/29 08:38:09;;;;;;;20.63;18.42;;;20.70;99.90;;;;;;5071220;28;20177;-71
2023/08/29 08:40:38;;;;;;;20.48;18.27;;;21.10;99.90;;;;;;5073245;28;20198;-73
2023/08/29 08:43:05;;;;;;;29.15;19.08;;;21.10;99.90;;;;;;5073603;28;20185;-71
2023/08/29 08:45:31;;;;;;;25.45;20.77;;;21.20;99.90;;;;;;5074811;28;20268;-74
2023/08/29 08:47:59;;;;;;;24.35;21.65;;;21.50;99.90;;;;;;5074043;28;20178;-73
2023/08/29 08:50:25;;;;;;;25.75;23.02;;;21.80;99.90;;;;;;5073717;28;20178;-73
2023/08/29 08:52:52;;;;;;;23.60;21.00;;;22.00;99.90;;;;;;5070902;28;20178;-72
2023/08/29 08:55:18;;;;;;;28.13;21.08;;;21.80;99.90;;;;;;5062676;28;20210;-71
2023/08/29 08:57:46;;;;;;;26.00;19.60;;;21.90;99.90;;;;;;5054046;28;20175;-76
2023/08/29 09:00:12;;;;;;;23.42;20.20;;;22.10;99.90;;;;;;5054546;28;20202;-71
2023/08/29 09:02:40;;;;;;;23.90;18.95;;;22.10;99.90;;;;;;5054313;28;20164;-72
2023/08/29 09:05:06;;;;;;;21.70;18.65;;;22.20;99.90;;;;;;5052833;28;20187;-72
2023/08/29 09:07:37;;;;;;;27.85;21.55;;;22.20;99.90;;;;;;5071150;28;20178;-71
2023/08/29 09:10:09;;;;;;;25.35;22.63;;;22.20;99.90;;;;;;5073924;28;20201;-72
2023/08/29 09:12:36;;;;;;;24.40;19.23;;;22.30;99.90;;;;;;5073624;28;20243;-72
2023/08/29 09:15:05;;;;;;;18.55;16.70;;;22.50;99.90;;;;;;5073849;28;20198;-72
2023/08/29 09:17:31;;;;;;;17.77;15.00;;;22.80;99.90;;;;;;5074236;28;20253;-72
2023/08/29 09:19:59;;;;;;;17.77;15.93;;;23.10;99.90;;;;;;5070545;28;20566;-72
2023/08/29 09:22:26;;;;;;;16.45;14.75;;;23.20;99.90;;;;;;5073634;28;20178;-72
2023/08/29 09:25:00;;;;;;;18.48;16.52;;;23.20;99.90;;;;;;5072918;28;20551;-72
2023/08/29 09:27:26;;;;;;;16.98;15.52;;;23.30;99.90;;;;;;5072639;28;20177;-71
2023/08/29 09:29:51;;;;;;;12.88;10.30;;;23.60;99.90;;;;;;5073411;28;20174;-73
2023/08/29 09:32:17;;;;;;;15.70;11.00;;;23.50;99.90;;;;;;5061364;28;20201;-73
2023/08/29 09:34:43;;;;;;;11.93;9.93;;;23.80;99.90;;;;;;5052427;28;20577;-73
2023/08/29 09:37:12;;;;;;;11.73;8.77;;;24.00;99.90;;;;;;5053699;28;20214;-73
2023/08/29 09:39:38;;;;;;;11.18;10.18;;;24.30;99.90;;;;;;5053570;28;20207;-73
2023/08/29 09:42:08;;;;;;;10.18;8.85;;;24.70;99.90;;;;;;5052870;28;20178;-73
2023/08/29 09:44:39;;;;;;;11.07;9.98;;;24.80;99.90;;;;;;5053400;28;20187;-73
2023/08/29 09:47:06;;;;;;;15.55;14.48;;;25.10;99.90;;;;;;5065057;28;20178;-72
2023/08/29 09:49:43;;;;;;;16.27;15.00;;;24.80;99.90;;;;;;5073665;28;20174;-72
2023/08/29 09:52:10;;;;;;;7.63;6.88;;;24.30;99.90;;;;;;5072996;28;20202;-73
2023/08/29 09:54:43;;;;;;;7.78;6.85;;;23.90;99.90;;;;;;5073249;28;20198;-73
2023/08/29 09:57:10;;;;;;;6.38;5.75;;;23.50;99.90;;;;;;5073325;28;20170;-72
2023/08/29 09:59:39;;;;;;;7.38;5.60;;;23.30;99.90;;;;;;5073188;28;20262;-72
2023/08/29 10:02:04;;;;;;;4.70;4.30;;;23.20;99.90;;;;;;5058797;28;20179;-73
2023/08/29 10:04:34;;;;;;;5.05;3.95;;;23.10;99.90;;;;;;5053187;28;20699;-72
2023/08/29 10:07:01;;;;;;;4.55;4.15;;;23.10;99.90;;;;;;5053401;28;20194;-72
2023/08/29 10:09:28;;;;;;;5.82;5.22;;;23.20;99.90;;;;;;5054512;28;20171;-72
2023/08/29 10:11:55;;;;;;;5.72;4.28;;;23.20;99.90;;;;;;5061385;28;20174;-73
2023/08/29 10:14:22;;;;;;;5.95;4.85;;;23.50;99.90;;;;;;5065306;28;20216;-72
2023/08/29 10:16:49;;;;;;;7.75;5.32;;;23.80;99.90;;;;;;5057303;28;20232;-72
2023/08/29 10:19:15;;;;;;;8.57;5.57;;;23.70;99.90;;;;;;5063691;28;20213;-72
2023/08/29 10:21:44;;;;;;;5.70;5.20;;;23.50;99.90;;;;;;5072812;28;20616;-72
2023/08/29 10:24:12;;;;;;;5.63;5.13;;;23.50;99.90;;;;;;5072671;28;20194;-72
2023/08/29 10:26:38;;;;;;;10.93;9.75;;;23.30;99.90;;;;;;5072326;28;20170;-72
2023/08/29 10:29:05;;;;;;;19.58;15.95;;;23.60;99.90;;;;;;5072450;28;20249;-73
2023/08/29 10:31:34;;;;;;;22.67;18.48;;;24.00;99.90;;;;;;5071791;28;20162;-73
2023/08/29 10:34:03;;;;;;;23.70;18.67;;;24.40;99.90;;;;;;5070556;28;20564;-72
2023/08/29 10:36:29;;;;;;;20.70;18.38;;;24.40;99.90;;;;;;5072530;28;20170;-72
2023/08/29 10:38:56;;;;;;;20.08;18.02;;;24.10;99.90;;;;;;5070955;28;20210;-72
2023/08/29 10:41:22;;;;;;;24.50;21.65;;;23.70;99.90;;;;;;5072106;28;20232;-72
2023/08/29 10:43:52;;;;;;;26.13;23.42;;;23.50;99.90;;;;;;5072020;28;20167;-71
2023/08/29 10:46:19;;;;;;;16.77;15.27;;;23.10;99.90;;;;;;5072301;28;20167;-72
2023/08/29 10:48:46;;;;;;;15.70;14.02;;;22.70;99.90;;;;;;5072306;28;20166;-72
2023/08/29 10:51:18;;;;;;;10.35;9.45;;;22.60;99.90;;;;;;5072496;28;20166;-72
2023/08/29 10:53:51;;;;;;;10.15;9.25;;;22.50;99.90;;;;;;5064000;28;20245;-72
2023/08/29 10:56:19;;;;;;;12.13;11.13;;;22.50;99.90;;;;;;5052832;28;20221;-71
2023/08/29 10:58:47;;;;;;;13.73;12.63;;;22.40;99.90;;;;;;5051797;28;20198;-72
2023/08/29 11:01:28;;;;;;;13.48;12.15;;;22.30;99.90;;;;;;5052188;28;20170;-76
2023/08/29 11:03:58;;;;;;;15.57;14.07;;;22.50;99.90;;;;;;5051452;28;20316;-71
2023/08/29 11:06:25;;;;;;;17.25;15.65;;;22.50;99.90;;;;;;5057847;28;20178;-73
2023/08/29 11:09:24;;;;;;;13.20;11.80;;;22.60;99.90;;;;;;5071522;28;20205;-72
2023/08/29 11:12:16;;;;;;;20.25;18.48;;;23.00;99.90;;;;;;5071721;28;20182;-72
2023/08/29 11:14:48;;;;;;;22.52;20.42;;;23.30;99.90;;;;;;5062233;28;20205;-72
2023/08/29 11:17:22;;;;;;;19.52;18.15;;;23.30;99.90;;;;;;5051977;28;20692;-72
2023/08/29 11:19:50;;;;;;;15.38;14.07;;;23.30;99.90;;;;;;5056991;28;20212;-70
2023/08/29 11:22:16;;;;;;;12.23;10.27;;;23.40;99.90;;;;;;5071360;28;20177;-72
2023/08/29 11:24:41;;;;;;;10.95;9.88;;;23.20;99.90;;;;;;5071274;28;20548;-71
2023/08/29 11:27:07;;;;;;;7.38;6.22;;;23.10;99.90;;;;;;5071601;28;20194;-71
2023/08/29 11:29:36;;;;;;;5.70;5.10;;;23.00;99.90;;;;;;5071387;28;20197;-72
2023/08/29 11:32:02;;;;;;;5.05;4.60;;;23.00;99.90;;;;;;5071049;28;20204;-72
2023/08/29 11:34:28;;;;;;;9.23;6.88;;;23.10;99.90;;;;;;5058900;28;20206;-72
2023/08/29 11:36:54;;;;;;;6.18;5.50;;;23.20;99.90;;;;;;5051290;28;20179;-73
2023/08/29 11:39:20;;;;;;;5.35;4.88;;;23.10;99.90;;;;;;5051477;28;20201;-73
2023/08/29 11:41:46;;;;;;;5.32;4.32;;;23.00;99.90;;;;;;5050766;28;20183;-72
2023/08/29 11:44:11;;;;;;;6.90;5.00;;;22.70;99.90;;;;;;5051017;28;20722;-74
2023/08/29 11:46:37;;;;;;;5.00;4.55;;;22.70;99.90;;;;;;5050949;28;20162;-72
2023/08/29 11:49:21;;;;;;;5.85;5.35;;;22.90;99.90;;;;;;5061715;28;20182;-71
2023/08/29 11:51:46;;;;;;;8.82;7.82;;;22.90;99.90;;;;;;5069449;28;20213;-71
2023/08/29 11:54:44;;;;;;;12.10;10.73;;;22.90;99.90;;;;;;5060342;28;20237;-73
2023/08/29 11:57:12;;;;;;;10.32;9.23;;;22.60;99.90;;;;;;5050554;28;20186;-74
2023/08/29 11:59:42;;;;;;;12.23;10.85;;;22.60;99.90;;;;;;5051411;28;20209;-71
2023/08/29 12:02:10;;;;;;;9.40;8.40;;;22.50;99.90;;;;;;5050849;28;20221;-72
2023/08/29 12:04:56;;;;;;;10.30;9.20;;;22.50;99.90;;;;;;5050830;28;20186;-74
2023/08/29 12:07:22;;;;;;;11.75;10.15;;;22.70;99.90;;;;;;5067010;28;20178;-72
2023/08/29 12:09:51;;;;;;;11.48;9.48;;;22.80;99.90;;;;;;5070995;28;20253;-71
2023/08/29 12:12:35;;;;;;;9.73;8.30;;;22.90;99.90;;;;;;5070747;28;20180;-71
2023/08/29 12:15:05;;;;;;;7.50;6.28;;;23.00;99.90;;;;;;5070672;28;20217;-72
2023/08/29 12:17:39;;;;;;;6.15;4.53;;;22.90;99.90;;;;;;5071166;28;20596;-72
2023/08/29 12:20:26;;;;;;;7.10;6.28;;;23.10;99.90;;;;;;5070637;28;20205;-72
2023/08/29 12:22:52;;;;;;;8.05;6.80;;;23.20;99.90;;;;;;5050575;28;20201;-72
2023/08/29 12:25:19;;;;;;;12.40;8.18;;;23.40;99.90;;;;;;5050817;28;20222;-72
2023/08/29 12:27:45;;;;;;;11.90;7.20;;;23.50;99.90;;;;;;5050728;28;20532;-73
2023/08/29 12:30:14;;;;;;;9.68;8.77;;;23.80;99.90;;;;;;5050603;28;20630;-71